Gonggar, China
Current Conditions -  °F | °C
As of 2:20 PM on Monday 22 Dec 2014 (Local Time) from VQPR Reporting Station
Few Clouds Few Clouds  
Wind Chill: 59°   Ceiling: Unl
Heat Index: 59°   Visibility: 6mi
Dew Point: 23°   Wind: 0mph
Humidity: 25%   Direction: NA
Pressure: 30.06"   Gusts: NA
Location:  29.25°N, 90.83°E
Report Text: VQPR 220620Z 00000KT 9999 FEW200 15/M05 Q1018 NOSIG
Loading
Personal Weather Stations






























Interactive Weather Map New forecast layout! Learn more

10-Day Weather Forecast

Advertisements
Track Severe Weather on mobile